Awaji Maru — JD2988 — position and weather

sailwx.info

Track history (hours):
 
Tides and Currents Weather Stations Pressure Air Temp Water Temp Dewpoint Dewpoint Depression Visibility Wind Speed Wind Dir Waves Ship Positions

Awaji Maru

Last reported at 2015-Apr-18 11:34 UTC. Time now 2015-Apr-18 11:44 UTC.
Position N 35°27' E 139°39'.

Length 37 m; draft 3 m.

Type: Tug. MMSI: 431001074.

Date/timePositionNaut miles runAvg speedWind from/ knotsBaromVisibWave heightAir tempDewpointWater temp
2015-Apr-18 11:34N 35°27' E 139°39'0 0.0
2015-Apr-18 10:34N 35°27' E 139°39'2 1.5
2015-Apr-18 09:33N 35°27' E 139°40'2 2.4
2015-Apr-18 08:33N 35°26' E 139°43'4 3.7
2015-Apr-18 07:33N 35°28' E 139°39'0 0.2
2015-Apr-18 06:33N 35°27' E 139°39'0 0.0
2015-Apr-18 05:33N 35°27' E 139°39'0 0.0
2015-Apr-18 04:34N 35°27' E 139°39'3 2.8
2015-Apr-18 03:33N 35°25' E 139°39'0 0.1
2015-Apr-18 02:34N 35°25' E 139°39'2 2.0
2015-Apr-18 01:33N 35°23' E 139°41'3 3.1
2015-Apr-18 00:34N 35°26' E 139°42'2 1.6
2015-Apr-17 23:33N 35°28' E 139°41'0 0.0
2015-Apr-17 22:33N 35°28' E 139°41'2 1.7
2015-Apr-17 21:33N 35°26' E 139°42'1 1.2
2015-Apr-17 20:34N 35°27' E 139°41'2 1.9
2015-Apr-17 19:33N 35°27' E 139°39'0 0.0
2015-Apr-17 18:34N 35°27' E 139°39'0 0.0
2015-Apr-17 17:33N 35°27' E 139°39'0 0.0
2015-Apr-17 16:34N 35°27' E 139°39'0 0.0
2015-Apr-17 15:33N 35°27' E 139°39'0 0.0
2015-Apr-17 14:33N 35°27' E 139°39'0 0.0
2015-Apr-17 13:34N 35°27' E 139°39'0 0.0
2015-Apr-17 12:33N 35°27' E 139°39'0 0.0
2015-Apr-17 11:33N 35°27' E 139°39'0 0.0
2015-Apr-17 10:34N 35°27' E 139°39'2 2.1
2015-Apr-17 09:33N 35°28' E 139°41'5 5.0
2015-Apr-17 08:33N 35°31' E 139°46'2 2.4
2015-Apr-17 07:33N 35°29' E 139°48'1 1.1
2015-Apr-17 06:34N 35°28' E 139°47'2 2.4
2015-Apr-17 05:33N 35°30' E 139°45'4 4.2
2015-Apr-17 04:33N 35°27' E 139°42'2 1.6
2015-Apr-17 03:33N 35°28' E 139°41'0 0.0
2015-Apr-17 02:33N 35°28' E 139°41'2 2.1
2015-Apr-17 01:33N 35°27' E 139°43'4 4.4
2015-Apr-17 00:33N 35°31' E 139°46'4 4.0
2015-Apr-16 23:33N 35°29' E 139°42'3 2.6
2015-Apr-16 22:34N 35°27' E 139°40'2 1.7
2015-Apr-16 21:33N 35°27' E 139°42'2 1.6
2015-Apr-16 20:34N 35°27' E 139°40'1 1.0
2015-Apr-16 19:34N 35°27' E 139°39'0 0.0
2015-Apr-16 18:33N 35°27' E 139°39'0 0.0
2015-Apr-16 17:33N 35°27' E 139°39'0 0.0
2015-Apr-16 16:33N 35°27' E 139°39'0 0.0
2015-Apr-16 15:33N 35°27' E 139°39'0 0.0
2015-Apr-16 14:34N 35°27' E 139°39'0 0.0
2015-Apr-16 13:34N 35°27' E 139°39'0 0.0
2015-Apr-16 12:33N 35°27' E 139°39'0 0.0
2015-Apr-16 11:34N 35°27' E 139°39'0 0.0
2015-Apr-16 10:33N 35°27' E 139°39'2 1.9
2015-Apr-16 09:33N 35°27' E 139°41'2 1.7
2015-Apr-16 08:33N 35°26' E 139°43'1 0.8
2015-Apr-16 07:33N 35°26' E 139°42'3 3.2
2015-Apr-16 06:31N 35°28' E 139°45'2 2.4
2015-Apr-16 05:33N 35°30' E 139°47'5 5.4
2015-Apr-16 04:33N 35°28' E 139°41'0 0.0
2015-Apr-16 03:33N 35°28' E 139°41'0 0.0
2015-Apr-16 02:33N 35°28' E 139°41'0 0.3
2015-Apr-16 01:33N 35°28' E 139°40'0 0.2
2015-Apr-16 00:27N 35°28' E 139°41'1 1.1
2015-Apr-15 23:33N 35°27' E 139°39'2 1.6
2015-Apr-15 22:33N 35°28' E 139°41'3 2.7
2015-Apr-15 21:33N 35°27' E 139°44'4 4.2
2015-Apr-15 20:33N 35°27' E 139°39'0 0.0
2015-Apr-15 19:33N 35°27' E 139°39'0 0.0
2015-Apr-15 18:33N 35°27' E 139°39'0 0.0
2015-Apr-15 17:33N 35°27' E 139°39'0 0.0
2015-Apr-15 16:34N 35°27' E 139°39'0 0.0
2015-Apr-15 15:33N 35°27' E 139°39'0 0.0
2015-Apr-15 14:33N 35°27' E 139°39'0 0.0
2015-Apr-15 13:34N 35°27' E 139°39'0 0.0
2015-Apr-15 12:33N 35°27' E 139°39'0 0.0
2015-Apr-15 11:33N 35°27' E 139°39'0 0.0
2015-Apr-15 10:33N 35°27' E 139°39'4 3.8
2015-Apr-15 09:33N 35°24' E 139°41'1 1.0
2015-Apr-15 08:34N 35°23' E 139°40'1 1.1
2015-Apr-15 07:33N 35°24' E 139°41'1 0.8
2015-Apr-15 06:33N 35°24' E 139°42'3 3.4
2015-Apr-15 05:33N 35°28' E 139°41'1 0.7
2015-Apr-15 04:33N 35°27' E 139°41'3 3.0
2015-Apr-15 03:33N 35°28' E 139°44'0 0.4
2015-Apr-15 02:32N 35°28' E 139°44'2 1.9
2015-Apr-15 01:33N 35°28' E 139°42'0 0.0
2015-Apr-15 00:33N 35°28' E 139°42'1 0.8
2015-Apr-14 23:34N 35°27' E 139°43'2 2.0
2015-Apr-14 22:34N 35°28' E 139°41'2 1.9
2015-Apr-14 21:33N 35°27' E 139°39'0 0.0
2015-Apr-14 20:34N 35°27' E 139°39'0 0.0
2015-Apr-14 19:34N 35°27' E 139°39'0 0.0
2015-Apr-14 18:34N 35°27' E 139°39'0 0.0
2015-Apr-14 17:33N 35°27' E 139°39'0 0.0
2015-Apr-14 16:34N 35°27' E 139°39'0 0.0
2015-Apr-14 15:34N 35°27' E 139°39'0 0.0
2015-Apr-14 14:34N 35°27' E 139°39'0 0.0
2015-Apr-14 13:33N 35°27' E 139°39'0 0.0
2015-Apr-14 12:33N 35°27' E 139°39'0 0.0
2015-Apr-14 11:34N 35°27' E 139°39'0 0.0
2015-Apr-14 10:34N 35°27' E 139°39'0 0.0
2015-Apr-14 09:34N 35°27' E 139°39'0 0.0
2015-Apr-14 08:34N 35°27' E 139°39'0 0.1
2015-Apr-14 07:34N 35°27' E 139°39'2 2.3
2015-Apr-14 06:33N 35°27' E 139°41'1 0.7
2015-Apr-14 05:34N 35°26' E 139°42'0 0.0
2015-Apr-14 04:33N 35°26' E 139°42'0 0.0
2015-Apr-14 03:33N 35°26' E 139°42'5 5.5
2015-Apr-14 02:33N 35°29' E 139°47'2 2.2
2015-Apr-14 01:33N 35°31' E 139°46'2 2.1
2015-Apr-14 00:33N 35°30' E 139°48'2 2.5
2015-Apr-13 23:33N 35°29' E 139°45'6 5.6
2015-Apr-13 22:34N 35°27' E 139°39'0 0.0
2015-Apr-13 21:34N 35°27' E 139°39'0 0.0
2015-Apr-13 20:33N 35°27' E 139°39'0 0.0
2015-Apr-13 19:33N 35°27' E 139°39'0 0.0
2015-Apr-13 18:33N 35°27' E 139°39'0 0.0
2015-Apr-13 17:34N 35°27' E 139°39'0 0.0
2015-Apr-13 16:33N 35°27' E 139°39'0 0.0
2015-Apr-13 15:33N 35°27' E 139°39'0 0.0
2015-Apr-13 14:33N 35°27' E 139°39'0 0.0
2015-Apr-13 13:33N 35°27' E 139°39'0 0.0
2015-Apr-13 12:34N 35°27' E 139°39'0 0.0
2015-Apr-13 11:34N 35°27' E 139°39'0 0.0
2015-Apr-13 10:33N 35°27' E 139°39'0 0.0
2015-Apr-13 09:34N 35°27' E 139°39'0 0.0
2015-Apr-13 08:33N 35°27' E 139°39'3 2.9
2015-Apr-13 07:33N 35°26' E 139°42'2 2.1
2015-Apr-13 06:33N 35°24' E 139°41'1 0.9
2015-Apr-13 05:34N 35°23' E 139°41'5 5.4
2015-Apr-13 04:33N 35°28' E 139°45'1 0.6
2015-Apr-13 03:33N 35°28' E 139°45'2 1.9
2015-Apr-13 02:34N 35°30' E 139°47'2 1.7
2015-Apr-13 01:34N 35°30' E 139°45'3 2.9
2015-Apr-13 00:33N 35°27' E 139°45'2 1.9
2015-Apr-12 23:33N 35°28' E 139°43'0 0.3
2015-Apr-12 22:33N 35°27' E 139°43'1 1.3
2015-Apr-12 21:33N 35°26' E 139°42'3 3.1
2015-Apr-12 20:33N 35°27' E 139°39'0 0.0
2015-Apr-12 19:33N 35°27' E 139°39'0 0.0
2015-Apr-12 18:33N 35°27' E 139°39'0 0.0
2015-Apr-12 17:33N 35°27' E 139°39'0 0.0
2015-Apr-12 16:33N 35°27' E 139°39'0 0.0
2015-Apr-12 15:33N 35°27' E 139°39'0 0.0
2015-Apr-12 14:33N 35°27' E 139°39'0 0.0
2015-Apr-12 13:33N 35°27' E 139°39'0 0.0
2015-Apr-12 12:33N 35°27' E 139°39'0 0.0
2015-Apr-12 11:33N 35°27' E 139°39'0 0.0
2015-Apr-12 10:33N 35°27' E 139°39'0 0.0
2015-Apr-12 09:33N 35°27' E 139°39'0 0.0
2015-Apr-12 08:33N 35°27' E 139°39'0 0.0
2015-Apr-12 07:33N 35°27' E 139°39'0 0.0
2015-Apr-12 06:33N 35°27' E 139°39'0 0.0
2015-Apr-12 05:33N 35°27' E 139°39'0 0.0
2015-Apr-12 04:33N 35°27' E 139°39'0 0.0
2015-Apr-12 03:33N 35°27' E 139°39'0 0.0
2015-Apr-12 02:33N 35°27' E 139°39'0 0.0
2015-Apr-12 01:33N 35°27' E 139°39'0 0.0
2015-Apr-12 00:33N 35°27' E 139°39'0 0.0
2015-Apr-11 23:33N 35°27' E 139°39'5 5.4
2015-Apr-11 22:33N 35°28' E 139°45'3 3.4
2015-Apr-11 21:34N 35°31' E 139°46'1 1.1
2015-Apr-11 20:33N 35°30' E 139°46'0 0.0
2015-Apr-11 19:33N 35°30' E 139°46'1 0.5
2015-Apr-11 18:33N 35°30' E 139°47'2 2.3
2015-Apr-11 17:34N 35°29' E 139°44'2 2.3
2015-Apr-11 16:33N 35°27' E 139°47'2 2.4
2015-Apr-11 15:33N 35°28' E 139°44'0 0.0
2015-Apr-11 14:33N 35°28' E 139°44'0 0.0
2015-Apr-11 13:33N 35°28' E 139°44'0 0.0
2015-Apr-11 12:33N 35°28' E 139°44'2 2.3
2015-Apr-11 11:33N 35°27' E 139°42'1 0.5
2015-Apr-11 10:33N 35°27' E 139°42'0 0.0
2015-Apr-11 09:33N 35°27' E 139°42'3 3.2
2015-Apr-11 08:33N 35°24' E 139°41'0 0.1
2015-Apr-11 07:33N 35°24' E 139°41'4 3.6
2015-Apr-11 06:33N 35°28' E 139°40'0 0.0
2015-Apr-11 05:33N 35°28' E 139°40'0 0.0
2015-Apr-11 04:33N 35°28' E 139°40'0 0.0
2015-Apr-11 03:33N 35°28' E 139°40'0 0.0
2015-Apr-11 02:33N 35°28' E 139°40'4 3.7
2015-Apr-11 01:33N 35°28' E 139°45'3 3.0
2015-Apr-11 00:33N 35°31' E 139°46'1 0.7
2015-Apr-10 23:33N 35°30' E 139°46'0 0.2
2015-Apr-10 22:33N 35°30' E 139°46'1 0.9
2015-Apr-10 21:33N 35°30' E 139°47'6 6.0
2015-Apr-10 20:33N 35°27' E 139°41'2 1.7
2015-Apr-10 19:33N 35°27' E 139°39'0 0.0
2015-Apr-10 18:33N 35°27' E 139°39'0 0.0
2015-Apr-10 17:33N 35°27' E 139°39'0 0.0
2015-Apr-10 16:33N 35°27' E 139°39'0 0.0
2015-Apr-10 15:33N 35°27' E 139°39'0 0.0
2015-Apr-10 14:33N 35°27' E 139°39'0 0.0
2015-Apr-10 13:33N 35°27' E 139°39'0 0.0
2015-Apr-10 12:33N 35°27' E 139°39'0 0.0
2015-Apr-10 11:33N 35°27' E 139°39'0 0.0
2015-Apr-10 10:33N 35°27' E 139°39'0 0.0
2015-Apr-10 09:33N 35°27' E 139°39'0 0.0
2015-Apr-10 08:33N 35°27' E 139°39'0 0.0
2015-Apr-10 07:33N 35°27' E 139°39'0 0.0
2015-Apr-10 06:34N 35°27' E 139°39'0 0.0
2015-Apr-10 05:33N 35°27' E 139°39'0 0.0
2015-Apr-10 04:33N 35°27' E 139°39'0 0.0
2015-Apr-10 03:33N 35°27' E 139°39'0 0.0
2015-Apr-10 02:33N 35°27' E 139°39'0 0.0
2015-Apr-10 01:33N 35°27' E 139°39'3 3.4
2015-Apr-10 00:33N 35°27' E 139°43'2 1.7
2015-Apr-09 23:33N 35°26' E 139°42'1 0.6
2015-Apr-09 22:34N 35°26' E 139°42'1 1.1
2015-Apr-09 21:33N 35°27' E 139°44'3 3.4
2015-Apr-09 20:33N 35°27' E 139°39'2 2.0
2015-Apr-09 19:34N 35°27' E 139°42'1 1.1
2015-Apr-09 18:33N 35°26' E 139°41'2 1.5
2015-Apr-09 17:33N 35°28' E 139°41'1 1.4
2015-Apr-09 16:33N 35°26' E 139°41'1 1.1
2015-Apr-09 15:33N 35°27' E 139°42'1 1.0
2015-Apr-09 14:33N 35°28' E 139°42'2 2.4
2015-Apr-09 13:33N 35°25' E 139°42'2 1.6
2015-Apr-09 12:33N 35°24' E 139°41'1 1.1
2015-Apr-09 11:33N 35°23' E 139°40'0 0.0
2015-Apr-09 10:34N 35°23' E 139°40'7 6.9
2015-Apr-09 09:33N 35°30' E 139°43'2 1.5
2015-Apr-09 08:33N 35°29' E 139°42'1 0.7
2015-Apr-09 07:33N 35°28' E 139°41'2 2.4
2015-Apr-09 06:33N 35°27' E 139°39'0 0.0
2015-Apr-09 05:33N 35°27' E 139°39'0 0.0
2015-Apr-09 04:33N 35°27' E 139°39'5 4.8
2015-Apr-09 03:33N 35°28' E 139°44'1 0.8
2015-Apr-09 02:33N 35°27' E 139°44'7 7.1
2015-Apr-09 01:34N 35°20' E 139°44'1010.3
2015-Apr-09 00:33N 35°10' E 139°47'1 1.4
2015-Apr-08 23:33N 35°12' E 139°47'1010.2
2015-Apr-08 22:34N 35°21' E 139°42'7 7.0
2015-Apr-08 21:33N 35°27' E 139°39'0 0.0
2015-Apr-08 20:33N 35°27' E 139°39'0 0.0
2015-Apr-08 19:33N 35°27' E 139°39'0 0.0
2015-Apr-08 18:33N 35°27' E 139°39'0 0.0
2015-Apr-08 17:33N 35°27' E 139°39'0 0.0
2015-Apr-08 16:33N 35°27' E 139°39'0 0.0
2015-Apr-08 15:33N 35°27' E 139°39'0 0.0
2015-Apr-08 14:33N 35°27' E 139°39'0 0.0
2015-Apr-08 13:33N 35°27' E 139°39'0 0.0
2015-Apr-08 12:33N 35°27' E 139°39'  
Track history (hours):
 
Tides and Currents Weather Stations Pressure Air Temp Water Temp Dewpoint Dewpoint Depression Visibility Wind Speed Wind Dir Waves Ship Positions

Awaji Maru

Last reported at 2015-Apr-18 11:34 UTC. Time now 2015-Apr-18 11:44 UTC.
Position N 35°27' E 139°39'.

Length 37 m; draft 3 m.

Type: Tug. MMSI: 431001074.

Date/timePositionNaut miles runAvg speedWind from/ knotsBaromVisibWave heightAir tempDewpointWater temp
2015-Apr-18 11:34N 35°27' E 139°39'0 0.0
2015-Apr-18 10:34N 35°27' E 139°39'2 1.5
2015-Apr-18 09:33N 35°27' E 139°40'2 2.4
2015-Apr-18 08:33N 35°26' E 139°43'4 3.7
2015-Apr-18 07:33N 35°28' E 139°39'0 0.2
2015-Apr-18 06:33N 35°27' E 139°39'0 0.0
2015-Apr-18 05:33N 35°27' E 139°39'0 0.0
2015-Apr-18 04:34N 35°27' E 139°39'3 2.8
2015-Apr-18 03:33N 35°25' E 139°39'0 0.1
2015-Apr-18 02:34N 35°25' E 139°39'2 2.0
2015-Apr-18 01:33N 35°23' E 139°41'3 3.1
2015-Apr-18 00:34N 35°26' E 139°42'2 1.6
2015-Apr-17 23:33N 35°28' E 139°41'0 0.0
2015-Apr-17 22:33N 35°28' E 139°41'2 1.7
2015-Apr-17 21:33N 35°26' E 139°42'1 1.2
2015-Apr-17 20:34N 35°27' E 139°41'2 1.9
2015-Apr-17 19:33N 35°27' E 139°39'0 0.0
2015-Apr-17 18:34N 35°27' E 139°39'0 0.0
2015-Apr-17 17:33N 35°27' E 139°39'0 0.0
2015-Apr-17 16:34N 35°27' E 139°39'0 0.0
2015-Apr-17 15:33N 35°27' E 139°39'0 0.0
2015-Apr-17 14:33N 35°27' E 139°39'0 0.0
2015-Apr-17 13:34N 35°27' E 139°39'0 0.0
2015-Apr-17 12:33N 35°27' E 139°39'0 0.0
2015-Apr-17 11:33N 35°27' E 139°39'0 0.0
2015-Apr-17 10:34N 35°27' E 139°39'2 2.1
2015-Apr-17 09:33N 35°28' E 139°41'5 5.0
2015-Apr-17 08:33N 35°31' E 139°46'2 2.4
2015-Apr-17 07:33N 35°29' E 139°48'1 1.1
2015-Apr-17 06:34N 35°28' E 139°47'2 2.4
2015-Apr-17 05:33N 35°30' E 139°45'4 4.2
2015-Apr-17 04:33N 35°27' E 139°42'2 1.6
2015-Apr-17 03:33N 35°28' E 139°41'0 0.0
2015-Apr-17 02:33N 35°28' E 139°41'2 2.1
2015-Apr-17 01:33N 35°27' E 139°43'4 4.4
2015-Apr-17 00:33N 35°31' E 139°46'4 4.0
2015-Apr-16 23:33N 35°29' E 139°42'3 2.6
2015-Apr-16 22:34N 35°27' E 139°40'2 1.7
2015-Apr-16 21:33N 35°27' E 139°42'2 1.6
2015-Apr-16 20:34N 35°27' E 139°40'1 1.0
2015-Apr-16 19:34N 35°27' E 139°39'0 0.0
2015-Apr-16 18:33N 35°27' E 139°39'0 0.0
2015-Apr-16 17:33N 35°27' E 139°39'0 0.0
2015-Apr-16 16:33N 35°27' E 139°39'0 0.0
2015-Apr-16 15:33N 35°27' E 139°39'0 0.0
2015-Apr-16 14:34N 35°27' E 139°39'0 0.0
2015-Apr-16 13:34N 35°27' E 139°39'0 0.0
2015-Apr-16 12:33N 35°27' E 139°39'0 0.0
2015-Apr-16 11:34N 35°27' E 139°39'0 0.0
2015-Apr-16 10:33N 35°27' E 139°39'2 1.9
2015-Apr-16 09:33N 35°27' E 139°41'2 1.7
2015-Apr-16 08:33N 35°26' E 139°43'1 0.8
2015-Apr-16 07:33N 35°26' E 139°42'3 3.2
2015-Apr-16 06:31N 35°28' E 139°45'2 2.4
2015-Apr-16 05:33N 35°30' E 139°47'5 5.4
2015-Apr-16 04:33N 35°28' E 139°41'0 0.0
2015-Apr-16 03:33N 35°28' E 139°41'0 0.0
2015-Apr-16 02:33N 35°28' E 139°41'0 0.3
2015-Apr-16 01:33N 35°28' E 139°40'0 0.2
2015-Apr-16 00:27N 35°28' E 139°41'1 1.1
2015-Apr-15 23:33N 35°27' E 139°39'2 1.6
2015-Apr-15 22:33N 35°28' E 139°41'3 2.7
2015-Apr-15 21:33N 35°27' E 139°44'4 4.2
2015-Apr-15 20:33N 35°27' E 139°39'0 0.0
2015-Apr-15 19:33N 35°27' E 139°39'0 0.0
2015-Apr-15 18:33N 35°27' E 139°39'0 0.0
2015-Apr-15 17:33N 35°27' E 139°39'0 0.0
2015-Apr-15 16:34N 35°27' E 139°39'0 0.0
2015-Apr-15 15:33N 35°27' E 139°39'0 0.0
2015-Apr-15 14:33N 35°27' E 139°39'0 0.0
2015-Apr-15 13:34N 35°27' E 139°39'0 0.0
2015-Apr-15 12:33N 35°27' E 139°39'0 0.0
2015-Apr-15 11:33N 35°27' E 139°39'0 0.0
2015-Apr-15 10:33N 35°27' E 139°39'4 3.8
2015-Apr-15 09:33N 35°24' E 139°41'1 1.0
2015-Apr-15 08:34N 35°23' E 139°40'1 1.1
2015-Apr-15 07:33N 35°24' E 139°41'1 0.8
2015-Apr-15 06:33N 35°24' E 139°42'3 3.4
2015-Apr-15 05:33N 35°28' E 139°41'1 0.7
2015-Apr-15 04:33N 35°27' E 139°41'3 3.0
2015-Apr-15 03:33N 35°28' E 139°44'0 0.4
2015-Apr-15 02:32N 35°28' E 139°44'2 1.9
2015-Apr-15 01:33N 35°28' E 139°42'0 0.0
2015-Apr-15 00:33N 35°28' E 139°42'1 0.8
2015-Apr-14 23:34N 35°27' E 139°43'2 2.0
2015-Apr-14 22:34N 35°28' E 139°41'2 1.9
2015-Apr-14 21:33N 35°27' E 139°39'0 0.0
2015-Apr-14 20:34N 35°27' E 139°39'0 0.0
2015-Apr-14 19:34N 35°27' E 139°39'0 0.0
2015-Apr-14 18:34N 35°27' E 139°39'0 0.0
2015-Apr-14 17:33N 35°27' E 139°39'0 0.0
2015-Apr-14 16:34N 35°27' E 139°39'0 0.0
2015-Apr-14 15:34N 35°27' E 139°39'0 0.0
2015-Apr-14 14:34N 35°27' E 139°39'0 0.0
2015-Apr-14 13:33N 35°27' E 139°39'0 0.0
2015-Apr-14 12:33N 35°27' E 139°39'0 0.0
2015-Apr-14 11:34N 35°27' E 139°39'0 0.0
2015-Apr-14 10:34N 35°27' E 139°39'0 0.0
2015-Apr-14 09:34N 35°27' E 139°39'0 0.0
2015-Apr-14 08:34N 35°27' E 139°39'0 0.1
2015-Apr-14 07:34N 35°27' E 139°39'2 2.3
2015-Apr-14 06:33N 35°27' E 139°41'1 0.7
2015-Apr-14 05:34N 35°26' E 139°42'0 0.0
2015-Apr-14 04:33N 35°26' E 139°42'0 0.0
2015-Apr-14 03:33N 35°26' E 139°42'5 5.5
2015-Apr-14 02:33N 35°29' E 139°47'2 2.2
2015-Apr-14 01:33N 35°31' E 139°46'2 2.1
2015-Apr-14 00:33N 35°30' E 139°48'2 2.5
2015-Apr-13 23:33N 35°29' E 139°45'6 5.6
2015-Apr-13 22:34N 35°27' E 139°39'0 0.0
2015-Apr-13 21:34N 35°27' E 139°39'0 0.0
2015-Apr-13 20:33N 35°27' E 139°39'0 0.0
2015-Apr-13 19:33N 35°27' E 139°39'0 0.0
2015-Apr-13 18:33N 35°27' E 139°39'0 0.0
2015-Apr-13 17:34N 35°27' E 139°39'0 0.0
2015-Apr-13 16:33N 35°27' E 139°39'0 0.0
2015-Apr-13 15:33N 35°27' E 139°39'0 0.0
2015-Apr-13 14:33N 35°27' E 139°39'0 0.0
2015-Apr-13 13:33N 35°27' E 139°39'0 0.0
2015-Apr-13 12:34N 35°27' E 139°39'0 0.0
2015-Apr-13 11:34N 35°27' E 139°39'0 0.0
2015-Apr-13 10:33N 35°27' E 139°39'0 0.0
2015-Apr-13 09:34N 35°27' E 139°39'0 0.0
2015-Apr-13 08:33N 35°27' E 139°39'3 2.9
2015-Apr-13 07:33N 35°26' E 139°42'2 2.1
2015-Apr-13 06:33N 35°24' E 139°41'1 0.9
2015-Apr-13 05:34N 35°23' E 139°41'5 5.4
2015-Apr-13 04:33N 35°28' E 139°45'1 0.6
2015-Apr-13 03:33N 35°28' E 139°45'2 1.9
2015-Apr-13 02:34N 35°30' E 139°47'2 1.7
2015-Apr-13 01:34N 35°30' E 139°45'3 2.9
2015-Apr-13 00:33N 35°27' E 139°45'2 1.9
2015-Apr-12 23:33N 35°28' E 139°43'0 0.3
2015-Apr-12 22:33N 35°27' E 139°43'1 1.3
2015-Apr-12 21:33N 35°26' E 139°42'3 3.1
2015-Apr-12 20:33N 35°27' E 139°39'0 0.0
2015-Apr-12 19:33N 35°27' E 139°39'0 0.0
2015-Apr-12 18:33N 35°27' E 139°39'0 0.0
2015-Apr-12 17:33N 35°27' E 139°39'0 0.0
2015-Apr-12 16:33N 35°27' E 139°39'0 0.0
2015-Apr-12 15:33N 35°27' E 139°39'0 0.0
2015-Apr-12 14:33N 35°27' E 139°39'0 0.0
2015-Apr-12 13:33N 35°27' E 139°39'0 0.0
2015-Apr-12 12:33N 35°27' E 139°39'0 0.0
2015-Apr-12 11:33N 35°27' E 139°39'0 0.0
2015-Apr-12 10:33N 35°27' E 139°39'0 0.0
2015-Apr-12 09:33N 35°27' E 139°39'0 0.0
2015-Apr-12 08:33N 35°27' E 139°39'0 0.0
2015-Apr-12 07:33N 35°27' E 139°39'0 0.0
2015-Apr-12 06:33N 35°27' E 139°39'0 0.0
2015-Apr-12 05:33N 35°27' E 139°39'0 0.0
2015-Apr-12 04:33N 35°27' E 139°39'0 0.0
2015-Apr-12 03:33N 35°27' E 139°39'0 0.0
2015-Apr-12 02:33N 35°27' E 139°39'0 0.0
2015-Apr-12 01:33N 35°27' E 139°39'0 0.0
2015-Apr-12 00:33N 35°27' E 139°39'0 0.0
2015-Apr-11 23:33N 35°27' E 139°39'5 5.4
2015-Apr-11 22:33N 35°28' E 139°45'3 3.4
2015-Apr-11 21:34N 35°31' E 139°46'1 1.1
2015-Apr-11 20:33N 35°30' E 139°46'0 0.0
2015-Apr-11 19:33N 35°30' E 139°46'1 0.5
2015-Apr-11 18:33N 35°30' E 139°47'2 2.3
2015-Apr-11 17:34N 35°29' E 139°44'2 2.3
2015-Apr-11 16:33N 35°27' E 139°47'2 2.4
2015-Apr-11 15:33N 35°28' E 139°44'0 0.0
2015-Apr-11 14:33N 35°28' E 139°44'0 0.0
2015-Apr-11 13:33N 35°28' E 139°44'0 0.0
2015-Apr-11 12:33N 35°28' E 139°44'2 2.3
2015-Apr-11 11:33N 35°27' E 139°42'1 0.5
2015-Apr-11 10:33N 35°27' E 139°42'0 0.0
2015-Apr-11 09:33N 35°27' E 139°42'3 3.2
2015-Apr-11 08:33N 35°24' E 139°41'0 0.1
2015-Apr-11 07:33N 35°24' E 139°41'4 3.6
2015-Apr-11 06:33N 35°28' E 139°40'0 0.0
2015-Apr-11 05:33N 35°28' E 139°40'0 0.0
2015-Apr-11 04:33N 35°28' E 139°40'0 0.0
2015-Apr-11 03:33N 35°28' E 139°40'0 0.0
2015-Apr-11 02:33N 35°28' E 139°40'4 3.7
2015-Apr-11 01:33N 35°28' E 139°45'3 3.0
2015-Apr-11 00:33N 35°31' E 139°46'1 0.7
2015-Apr-10 23:33N 35°30' E 139°46'0 0.2
2015-Apr-10 22:33N 35°30' E 139°46'1 0.9
2015-Apr-10 21:33N 35°30' E 139°47'6 6.0
2015-Apr-10 20:33N 35°27' E 139°41'2 1.7
2015-Apr-10 19:33N 35°27' E 139°39'0 0.0
2015-Apr-10 18:33N 35°27' E 139°39'0 0.0
2015-Apr-10 17:33N 35°27' E 139°39'0 0.0
2015-Apr-10 16:33N 35°27' E 139°39'0 0.0
2015-Apr-10 15:33N 35°27' E 139°39'0 0.0
2015-Apr-10 14:33N 35°27' E 139°39'0 0.0
2015-Apr-10 13:33N 35°27' E 139°39'0 0.0
2015-Apr-10 12:33N 35°27' E 139°39'0 0.0
2015-Apr-10 11:33N 35°27' E 139°39'0 0.0
2015-Apr-10 10:33N 35°27' E 139°39'0 0.0
2015-Apr-10 09:33N 35°27' E 139°39'0 0.0
2015-Apr-10 08:33N 35°27' E 139°39'0 0.0
2015-Apr-10 07:33N 35°27' E 139°39'0 0.0
2015-Apr-10 06:34N 35°27' E 139°39'0 0.0
2015-Apr-10 05:33N 35°27' E 139°39'0 0.0
2015-Apr-10 04:33N 35°27' E 139°39'0 0.0
2015-Apr-10 03:33N 35°27' E 139°39'0 0.0
2015-Apr-10 02:33N 35°27' E 139°39'0 0.0
2015-Apr-10 01:33N 35°27' E 139°39'3 3.4
2015-Apr-10 00:33N 35°27' E 139°43'2 1.7
2015-Apr-09 23:33N 35°26' E 139°42'1 0.6
2015-Apr-09 22:34N 35°26' E 139°42'1 1.1
2015-Apr-09 21:33N 35°27' E 139°44'3 3.4
2015-Apr-09 20:33N 35°27' E 139°39'2 2.0
2015-Apr-09 19:34N 35°27' E 139°42'1 1.1
2015-Apr-09 18:33N 35°26' E 139°41'2 1.5
2015-Apr-09 17:33N 35°28' E 139°41'1 1.4
2015-Apr-09 16:33N 35°26' E 139°41'1 1.1
2015-Apr-09 15:33N 35°27' E 139°42'1 1.0
2015-Apr-09 14:33N 35°28' E 139°42'2 2.4
2015-Apr-09 13:33N 35°25' E 139°42'2 1.6
2015-Apr-09 12:33N 35°24' E 139°41'1 1.1
2015-Apr-09 11:33N 35°23' E 139°40'0 0.0
2015-Apr-09 10:34N 35°23' E 139°40'7 6.9
2015-Apr-09 09:33N 35°30' E 139°43'2 1.5
2015-Apr-09 08:33N 35°29' E 139°42'1 0.7
2015-Apr-09 07:33N 35°28' E 139°41'2 2.4
2015-Apr-09 06:33N 35°27' E 139°39'0 0.0
2015-Apr-09 05:33N 35°27' E 139°39'0 0.0
2015-Apr-09 04:33N 35°27' E 139°39'5 4.8
2015-Apr-09 03:33N 35°28' E 139°44'1 0.8
2015-Apr-09 02:33N 35°27' E 139°44'7 7.1
2015-Apr-09 01:34N 35°20' E 139°44'1010.3
2015-Apr-09 00:33N 35°10' E 139°47'1 1.4
2015-Apr-08 23:33N 35°12' E 139°47'1010.2
2015-Apr-08 22:34N 35°21' E 139°42'7 7.0
2015-Apr-08 21:33N 35°27' E 139°39'0 0.0
2015-Apr-08 20:33N 35°27' E 139°39'0 0.0
2015-Apr-08 19:33N 35°27' E 139°39'0 0.0
2015-Apr-08 18:33N 35°27' E 139°39'0 0.0
2015-Apr-08 17:33N 35°27' E 139°39'0 0.0
2015-Apr-08 16:33N 35°27' E 139°39'0 0.0
2015-Apr-08 15:33N 35°27' E 139°39'0 0.0
2015-Apr-08 14:33N 35°27' E 139°39'0 0.0
2015-Apr-08 13:33N 35°27' E 139°39'0 0.0
2015-Apr-08 12:33N 35°27' E 139°39'  

Dump ship's entire track history